Time;durP1;ratioP1;P1;durP2;ratioP2;P2;SDS_P1;SDS_P2;PMS_P1;PMS_P2;Temp;Humidity;BMP_temperature;BMP_pressure;BME280_temperature;BME280_humidity;BME280_pressure;Samples;Min_cycle;Max_cycle;Signal;HPM_P1;HPM_P2
2022/05/27 00:01:10;;;;;;;;;;;18.60;96.40;;;16.57;86.70;100893.94;6151843;23;20003;-78
2022/05/27 00:03:38;;;;;;;;;;;18.60;96.40;;;16.53;87.34;100902.84;6151835;23;19920;-77
2022/05/27 00:06:05;;;;;;;;;;;18.60;96.60;;;16.57;87.39;100906.84;6150783;23;19943;-78
2022/05/27 00:08:32;;;;;;;;;;;18.60;96.70;;;16.54;87.44;100905.34;6150500;23;20008;-78
2022/05/27 00:11:00;;;;;;;;;;;18.60;96.70;;;16.53;87.48;100886.34;6151696;23;20367;-77
2022/05/27 00:13:28;;;;;;;;;;;18.60;96.70;;;16.52;87.50;100901.13;6151758;23;19927;-77
2022/05/27 00:15:57;;;;;;;;;;;18.50;96.80;;;16.50;87.48;100889.53;6150837;23;20027;-78
2022/05/27 00:18:24;;;;;;;;;;;18.50;96.70;;;16.48;88.03;100883.41;6150323;23;19971;-77
2022/05/27 00:20:51;;;;;;;;;;;18.50;96.90;;;16.45;88.17;100884.69;6151593;23;19927;-77
2022/05/27 00:23:20;;;;;;;;;;;18.40;97.00;;;16.45;88.06;100878.31;6151509;23;19995;-78
2022/05/27 00:25:47;;;;;;;;;;;18.50;97.20;;;16.44;88.07;100876.66;6151552;23;19926;-78
2022/05/27 00:28:14;;;;;;;;;;;18.40;97.00;;;16.43;87.94;100875.81;6150042;23;20003;-78
2022/05/27 00:30:42;;;;;;;;;;;18.50;97.00;;;16.40;88.34;100874.31;6151610;23;19979;-78
2022/05/27 00:33:10;;;;;;;;;;;18.50;97.20;;;16.39;88.63;100880.03;6150987;23;19920;-77
2022/05/27 00:35:38;;;;;;;;;;;18.40;97.30;;;16.35;89.05;100887.84;6125255;23;20300;-78
2022/05/27 00:38:06;;;;;;;;;;;18.30;97.60;;;16.33;89.49;100878.13;6124349;23;20350;-77
2022/05/27 00:40:38;;;;;;;;;;;18.30;98.10;;;16.31;90.72;100881.09;6151228;23;19959;-79
2022/05/27 00:43:06;;;;;;;;;;;18.30;98.40;;;16.30;90.47;100865.69;6151850;23;19999;-79
2022/05/27 00:45:34;;;;;;;;;;;18.30;98.30;;;16.28;91.50;100872.44;6151422;23;19925;-79
2022/05/27 00:48:03;;;;;;;;;;;18.30;98.90;;;16.26;91.73;100875.41;6150452;23;19951;-79
2022/05/27 00:50:33;;;;;;;;;;;18.20;99.00;;;16.24;91.66;100874.78;6150462;23;19971;-79
2022/05/27 00:53:02;;;;;;;;;;;18.20;99.10;;;16.21;92.05;100872.47;6151149;23;20393;-79
2022/05/27 00:55:34;;;;;;;;;;;18.20;99.30;;;16.16;92.77;100869.50;6151172;23;19999;-79
2022/05/27 00:58:07;;;;;;;;;;;18.10;99.70;;;16.11;93.23;100870.16;6124329;23;20011;-80
2022/05/27 01:00:34;;;;;;;;;;;18.10;99.90;;;16.13;92.30;100870.78;6153094;23;19978;-79
2022/05/27 01:03:02;;;;;;;;;;;18.10;99.70;;;16.13;93.23;100864.44;6127188;23;19967;-79
2022/05/27 01:05:29;;;;;;;;;;;18.10;99.90;;;16.12;93.35;100873.72;6151991;23;20328;-79
2022/05/27 01:08:02;;;;;;;;;;;18.10;99.90;;;16.12;93.78;100868.22;6152114;23;19916;-76
2022/05/27 01:10:33;;;;;;;;;;;18.10;99.90;;;16.08;94.16;100856.84;6127013;23;19956;-76
2022/05/27 01:13:15;;;;;;;;;;;18.10;99.90;;;16.07;94.28;100859.78;6153370;23;20125;-76
2022/05/27 01:15:47;;;;;;;;;;;18.00;99.90;;;16.05;94.43;100856.41;6153165;23;19948;-76
2022/05/27 01:21:27;;;;;;;;;;;18.00;99.90;;;15.96;94.23;100856.63;6152986;23;20006;-76
2022/05/27 01:24:34;;;;;;;;;;;17.90;99.90;;;15.96;94.37;100856.63;6153071;23;19991;-76
2022/05/27 01:27:25;;;;;;;;;;;17.90;99.90;;;15.98;93.93;100857.25;6107931;23;20027;-76
2022/05/27 01:30:28;;;;;;;;;;;17.90;99.90;;;16.00;93.60;100854.31;6151527;23;19948;-76
2022/05/27 01:33:16;;;;;;;;;;;17.90;99.90;;;15.98;93.53;100859.16;6153120;23;19920;-76
2022/05/27 01:35:47;;;;;;;;;;;18.00;99.90;;;15.98;93.82;100857.25;6152910;23;19947;-76
2022/05/27 01:38:19;;;;;;;;;;;17.90;99.90;;;15.98;93.32;100853.69;6152012;23;19920;-77
2022/05/27 01:40:52;;;;;;;;;;;18.00;99.90;;;16.00;93.47;100854.31;6152626;23;19947;-76
2022/05/27 01:43:23;;;;;;;;;;;18.00;99.90;;;15.97;93.56;100843.75;6152998;23;19952;-76
2022/05/27 01:45:56;;;;;;;;;;;18.00;99.90;;;15.97;93.45;100850.09;6152701;23;19954;-78
2022/05/27 01:48:28;;;;;;;;;;;18.00;99.90;;;15.95;93.63;100846.69;6125146;23;19995;-78
2022/05/27 01:51:01;;;;;;;;;;;18.00;99.90;;;15.95;93.50;100852.19;6126309;23;20525;-78
2022/05/27 01:53:33;;;;;;;;;;;17.90;99.90;;;15.97;93.62;100843.75;6124904;23;19935;-78
2022/05/27 01:56:06;;;;;;;;;;;18.00;99.90;;;15.97;94.23;100850.09;6152932;23;20020;-78
2022/05/27 01:58:38;;;;;;;;;;;18.00;99.90;;;15.96;94.81;100847.56;6151807;23;20284;-78
2022/05/27 02:01:10;;;;;;;;;;;18.00;99.90;;;15.94;95.40;100845.03;6126163;23;20423;-78
2022/05/27 02:03:40;;;;;;;;;;;18.00;99.90;;;15.91;96.22;100839.94;6152344;23;19943;-78
2022/05/27 02:06:11;;;;;;;;;;;17.90;99.90;;;15.89;96.49;100842.06;6151130;23;19926;-78
2022/05/27 02:08:42;;;;;;;;;;;17.90;99.90;;;15.88;96.84;100837.66;6151286;23;19999;-78
2022/05/27 02:11:12;;;;;;;;;;;17.90;99.90;;;15.85;96.62;100838.06;6152576;23;20438;-78
2022/05/27 02:13:43;;;;;;;;;;;17.90;99.90;;;15.82;96.99;100832.97;6152435;23;19917;-78
2022/05/27 02:16:14;;;;;;;;;;;17.80;99.90;;;15.78;97.22;100840.81;6152156;23;19916;-78
2022/05/27 02:18:46;;;;;;;;;;;17.80;99.90;;;15.74;98.15;100844.16;6151474;23;19920;-78
2022/05/27 02:21:17;;;;;;;;;;;17.70;99.90;;;15.72;98.72;100840.75;6152119;23;19963;-78
2022/05/27 02:23:48;;;;;;;;;;;17.60;99.90;;;15.72;98.76;100838.03;6151915;23;19947;-78
2022/05/27 02:26:19;;;;;;;;;;;17.60;99.90;;;15.70;98.63;100842.88;6152048;23;19916;-78
2022/05/27 02:28:49;;;;;;;;;;;17.60;99.90;;;15.64;99.73;100831.69;6151368;23;19951;-78
2022/05/27 02:31:21;;;;;;;;;;;17.60;99.90;;;15.66;100.00;100833.38;6152202;23;20357;-78
2022/05/27 02:36:42;;;;;;;;;;;17.60;99.90;;;15.60;100.00;100844.13;6152675;23;20414;-78
2022/05/27 02:39:09;;;;;;;;;;;17.60;99.90;;;15.55;100.00;100838.41;6150332;23;19955;-78
2022/05/27 02:41:42;;;;;;;;;;;17.50;99.90;;;15.49;100.00;100835.69;6152215;23;19920;-78
2022/05/27 02:44:19;;;;;;;;;;;17.40;99.90;;;15.46;100.00;100836.97;6152386;23;20582;-78
2022/05/27 02:46:51;;;;;;;;;;;17.40;99.90;;;15.41;100.00;100836.72;6152189;23;19995;-78
2022/05/27 02:49:24;;;;;;;;;;;17.40;99.90;;;15.39;100.00;100842.41;6151040;23;19944;-78
2022/05/27 02:51:57;;;;;;;;;;;17.40;99.90;;;15.35;100.00;100835.66;6151680;23;19971;-78
2022/05/27 02:54:30;;;;;;;;;;;17.30;99.90;;;15.32;100.00;100835.25;6151658;23;19920;-78
2022/05/27 02:57:01;;;;;;;;;;;17.20;99.90;;;15.28;100.00;100834.81;6152272;23;19920;-78
2022/05/27 02:59:29;;;;;;;;;;;17.20;99.90;;;15.27;100.00;100835.00;6151322;23;20003;-78
2022/05/27 03:02:06;;;;;;;;;;;17.20;99.90;;;15.21;100.00;100834.81;6152371;23;19920;-78
2022/05/27 03:04:34;;;;;;;;;;;17.10;99.90;;;15.20;100.00;100846.81;6151907;23;20395;-79
2022/05/27 03:07:09;;;;;;;;;;;17.10;99.90;;;15.14;100.00;100847.66;6152114;23;19920;-78
2022/05/27 03:09:49;;;;;;;;;;;17.10;99.90;;;15.11;100.00;100839.81;6151383;23;20003;-78
2022/05/27 03:12:28;;;;;;;;;;;17.10;99.90;;;15.07;100.00;100849.50;6152178;23;19952;-78
2022/05/27 03:15:21;;;;;;;;;;;17.00;99.90;;;15.01;100.00;100842.13;6151851;23;19916;-78
2022/05/27 03:18:04;;;;;;;;;;;16.90;99.90;;;14.98;100.00;100848.00;6150276;23;19920;-78
2022/05/27 03:20:41;;;;;;;;;;;16.90;99.90;;;14.96;100.00;100839.16;6152025;23;19999;-78
2022/05/27 03:23:17;;;;;;;;;;;16.80;99.90;;;14.93;100.00;100839.56;6151261;23;19927;-78
2022/05/27 03:25:48;;;;;;;;;;;16.80;99.90;;;14.93;100.00;100845.91;6151496;23;19916;-78
2022/05/27 03:28:22;;;;;;;;;;;16.90;99.90;;;14.97;100.00;100857.28;6150383;23;19921;-78
2022/05/27 03:30:55;;;;;;;;;;;16.90;99.90;;;14.98;100.00;100853.47;6150208;23;20252;-78
2022/05/27 03:33:29;;;;;;;;;;;16.90;99.90;;;14.98;100.00;100861.72;6151415;23;20019;-78
2022/05/27 03:36:02;;;;;;;;;;;16.90;99.90;;;14.98;100.00;100894.59;6151926;23;19921;-78
2022/05/27 03:38:37;;;;;;;;;;;17.00;99.90;;;15.00;100.00;100892.50;6150719;23;19992;-78
2022/05/27 03:41:07;;;;;;;;;;;17.00;99.90;;;14.97;100.00;100895.66;6151876;23;19947;-79
2022/05/27 03:43:35;;;;;;;;;;;17.00;99.90;;;14.98;100.00;100898.22;6151938;23;19920;-78
2022/05/27 03:46:03;;;;;;;;;;;17.10;99.90;;;15.00;100.00;100887.88;6151823;23;19932;-78
2022/05/27 03:48:34;;;;;;;;;;;17.10;99.90;;;15.02;100.00;100891.25;6150531;23;20279;-78
2022/05/27 03:51:05;;;;;;;;;;;17.10;99.90;;;15.00;100.00;100892.50;6151612;23;19945;-78
2022/05/27 03:56:16;;;;;;;;;;;17.00;99.90;;;14.97;100.00;100882.78;6151505;23;20342;-78
2022/05/27 03:58:43;;;;;;;;;;;17.00;99.90;;;14.97;100.00;100882.78;6150135;23;19926;-78
2022/05/27 04:01:10;;;;;;;;;;;17.00;99.90;;;14.90;100.00;100881.09;6151415;23;20020;-78
2022/05/27 04:03:39;;;;;;;;;;;17.10;99.90;;;14.87;100.00;100885.09;6151230;23;19920;-78
2022/05/27 04:06:06;;;;;;;;;;;16.90;99.90;;;14.83;100.00;100881.91;6151106;23;19944;-78
2022/05/27 04:08:33;;;;;;;;;;;16.90;99.90;;;14.78;100.00;100878.91;6150638;23;19924;-78
2022/05/27 04:11:00;;;;;;;;;;;16.80;99.90;;;14.77;100.00;100887.34;6151358;23;20003;-77
2022/05/27 04:13:28;;;;;;;;;;;16.80;99.90;;;14.74;100.00;100883.13;6151820;23;20336;-77
2022/05/27 04:15:55;;;;;;;;;;;16.80;99.90;;;14.69;100.00;100880.13;6150651;23;20406;-79
2022/05/27 04:18:22;;;;;;;;;;;16.70;99.90;;;14.64;100.00;100880.75;6150142;23;19920;-78
2022/05/27 04:20:50;;;;;;;;;;;16.70;99.90;;;14.61;100.00;100886.63;6149601;23;20021;-78
2022/05/27 04:23:17;;;;;;;;;;;16.60;99.90;;;14.61;100.00;100896.75;6151699;23;20279;-78
2022/05/27 04:25:46;;;;;;;;;;;16.60;99.90;;;14.57;100.00;100882.59;6151634;23;19927;-78
2022/05/27 04:28:13;;;;;;;;;;;16.60;99.90;;;14.57;100.00;100885.34;6123958;23;19920;-78
2022/05/27 04:30:41;;;;;;;;;;;16.60;99.90;;;14.56;100.00;100877.28;6151613;23;19924;-78
2022/05/27 04:33:08;;;;;;;;;;;16.60;99.90;;;14.58;100.00;100880.69;6151586;23;19975;-78
2022/05/27 04:35:36;;;;;;;;;;;16.60;99.90;;;14.52;100.00;100871.38;6152569;23;19920;-78
2022/05/27 04:38:05;;;;;;;;;;;16.60;99.90;;;14.50;100.00;100881.69;6152245;23;19955;-78
2022/05/27 04:40:32;;;;;;;;;;;16.60;99.90;;;14.51;100.00;100882.50;6153153;23;19920;-78
2022/05/27 04:43:01;;;;;;;;;;;16.60;99.90;;;14.50;100.00;100875.38;6153348;23;19920;-77
2022/05/27 04:45:28;;;;;;;;;;;16.60;99.90;;;14.52;100.00;100868.63;6153346;23;19916;-78
2022/05/27 04:47:55;;;;;;;;;;;16.60;99.90;;;14.52;100.00;100865.06;6152451;23;19927;-78
2022/05/27 04:50:23;;;;;;;;;;;16.60;99.90;;;14.53;100.00;100866.75;6153122;23;20332;-78
2022/05/27 04:52:50;;;;;;;;;;;16.60;99.90;;;14.51;100.00;100877.03;6152662;23;19947;-78
2022/05/27 04:55:19;;;;;;;;;;;16.60;99.90;;;14.46;100.00;100873.00;6153319;23;19927;-78
2022/05/27 04:57:50;;;;;;;;;;;16.60;99.90;;;14.42;100.00;100879.13;6152297;23;19944;-78
2022/05/27 05:00:20;;;;;;;;;;;16.50;99.90;;;14.41;100.00;100870.06;6153273;23;19955;-78
2022/05/27 05:02:47;;;;;;;;;;;16.50;99.90;;;14.40;100.00;100876.56;6153493;23;19951;-78
2022/05/27 05:05:16;;;;;;;;;;;16.50;99.90;;;14.36;100.00;100880.75;6152642;23;19926;-78
2022/05/27 05:07:43;;;;;;;;;;;16.40;99.90;;;14.35;100.00;100878.22;6152180;23;19946;-77
2022/05/27 05:10:12;;;;;;;;;;;16.40;99.90;;;14.34;100.00;100888.31;6152709;23;19999;-78
2022/05/27 05:12:40;;;;;;;;;;;16.50;99.90;;;14.35;100.00;100890.00;6152933;23;20002;-78
2022/05/27 05:15:08;;;;;;;;;;;16.50;99.90;;;14.32;100.00;100884.94;6152835;23;20015;-77
2022/05/27 05:17:35;;;;;;;;;;;16.40;99.90;;;14.30;100.00;100887.03;6152031;23;19920;-78
2022/05/27 05:20:04;;;;;;;;;;;16.40;99.90;;;14.32;100.00;100884.94;6152597;23;19987;-78
2022/05/27 05:22:32;;;;;;;;;;;16.40;99.90;;;14.34;100.00;100885.59;6126851;23;19920;-78
2022/05/27 05:24:59;;;;;;;;;;;16.40;99.90;;;14.37;100.00;100887.06;6153010;23;20414;-78
2022/05/27 05:27:28;;;;;;;;;;;16.50;99.90;;;14.36;100.00;100879.91;6151982;23;19920;-78
2022/05/27 05:29:57;;;;;;;;;;;16.50;99.90;;;14.36;100.00;100880.75;6151756;23;19931;-78
2022/05/27 05:32:25;;;;;;;;;;;16.50;99.90;;;14.32;100.00;100887.69;6153183;23;19921;-77
2022/05/27 05:34:52;;;;;;;;;;;16.50;99.90;;;14.30;100.00;100887.03;6152880;23;20003;-77
2022/05/27 05:37:18;;;;;;;;;;;16.40;99.90;;;14.28;100.00;100894.63;6152853;23;19924;-77
2022/05/27 05:39:46;;;;;;;;;;;16.30;99.90;;;14.27;100.00;100882.78;6151372;23;20011;-86
2022/05/27 05:42:13;;;;;;;;;;;16.30;99.90;;;14.28;100.00;100884.50;6152767;23;19983;-76
2022/05/27 05:44:40;;;;;;;;;;;16.30;99.90;;;14.27;100.00;100887.44;6151282;23;19927;-78
2022/05/27 05:47:08;;;;;;;;;;;16.30;99.90;;;14.27;100.00;100887.44;6152302;23;20422;-78
2022/05/27 05:49:35;;;;;;;;;;;16.30;99.90;;;14.29;100.00;100890.81;6151733;23;19920;-78
2022/05/27 05:52:03;;;;;;;;;;;16.40;99.90;;;14.29;100.00;100885.34;6152194;23;19920;-78
2022/05/27 05:54:31;;;;;;;;;;;16.40;99.90;;;14.26;100.00;100888.50;6152629;23;19917;-78
2022/05/27 05:57:00;;;;;;;;;;;16.30;99.90;;;14.27;100.00;100892.91;6152744;23;19948;-78
2022/05/27 05:59:29;;;;;;;;;;;16.40;99.90;;;14.32;100.00;100895.03;6151818;23;19977;-78
2022/05/27 06:01:56;;;;;;;;;;;16.40;99.90;;;14.34;100.00;100896.53;6151516;23;19996;-78
2022/05/27 06:04:25;;;;;;;;;;;16.50;99.90;;;14.36;100.00;100893.63;6149994;23;19946;-78
2022/05/27 06:06:52;;;;;;;;;;;16.60;99.90;;;14.39;100.00;100880.38;6151492;23;19927;-78
2022/05/27 06:09:22;;;;;;;;;;;16.60;99.90;;;14.44;100.00;100896.19;6150855;23;19944;-78
2022/05/27 06:11:50;;;;;;;;;;;16.70;99.90;;;14.44;100.00;100899.75;6150150;23;19999;-78
2022/05/27 06:14:17;;;;;;;;;;;16.70;99.90;;;14.50;100.00;100900.84;6151155;23;19952;-78
2022/05/27 06:16:44;;;;;;;;;;;16.80;99.90;;;14.53;100.00;100908.69;6151887;23;19952;-77
2022/05/27 06:19:11;;;;;;;;;;;16.80;99.90;;;14.56;100.00;100907.41;6150847;23;19956;-77
2022/05/27 06:21:39;;;;;;;;;;;16.80;99.90;;;14.55;100.00;100903.84;6151845;23;20374;-78
2022/05/27 06:24:07;;;;;;;;;;;16.80;99.90;;;14.58;100.00;100908.97;6149634;23;19923;-77
2022/05/27 06:26:34;;;;;;;;;;;16.80;99.90;;;14.59;100.00;100913.38;6150449;23;19928;-77
2022/05/27 06:34:30;;;;;;;;;;;16.80;99.90;;;14.62;100.00;100909.38;6149240;23;20003;-77
2022/05/27 06:37:02;;;;;;;;;;;16.80;99.90;;;14.64;100.00;100913.63;6147827;23;19921;-77
2022/05/27 06:39:30;;;;;;;;;;;16.90;99.90;;;14.67;100.00;100912.38;6148276;23;19916;-77
2022/05/27 06:41:57;;;;;;;;;;;17.00;99.90;;;14.71;100.00;100915.56;6148918;23;20335;-78
2022/05/27 06:44:32;;;;;;;;;;;17.10;99.90;;;14.76;100.00;100915.81;6123293;23;20003;-77
2022/05/27 06:46:59;;;;;;;;;;;17.20;99.90;;;14.81;100.00;100922.38;6151001;23;20003;-78
2022/05/27 06:49:26;;;;;;;;;;;17.30;99.90;;;14.84;100.00;100912.88;6150096;23;19927;-77
2022/05/27 06:51:53;;;;;;;;;;;17.40;99.90;;;14.90;100.00;100913.97;6151235;23;20368;-77
2022/05/27 06:54:22;;;;;;;;;;;17.50;99.90;;;14.97;100.00;100914.84;6150177;23;19975;-77
2022/05/27 06:56:50;;;;;;;;;;;17.60;99.90;;;15.06;100.00;100924.59;6150849;23;20336;-77
2022/05/27 06:59:17;;;;;;;;;;;17.90;99.90;;;15.17;100.00;100914.91;6149807;23;19973;-77
2022/05/27 07:01:44;;;;;;;;;;;18.00;99.90;;;15.25;100.00;100915.59;6151173;23;19920;-77
2022/05/27 07:04:12;;;;;;;;;;;18.20;99.90;;;15.35;100.00;100922.59;6150086;23;20347;-77
2022/05/27 07:06:43;;;;;;;;;;;18.20;99.90;;;15.44;100.00;100921.34;6151378;23;20015;-77
2022/05/27 07:09:10;;;;;;;;;;;18.30;99.90;;;15.53;100.00;100924.75;6150614;23;19917;-77
2022/05/27 07:11:40;;;;;;;;;;;18.40;99.90;;;15.61;100.00;100925.41;6151985;23;19952;-76
2022/05/27 07:14:08;;;;;;;;;;;18.50;99.90;;;15.71;100.00;100921.41;6151444;23;19920;-76
2022/05/27 07:16:35;;;;;;;;;;;18.50;99.90;;;15.74;100.00;100910.03;6150567;23;19920;-76
2022/05/27 07:19:02;;;;;;;;;;;18.50;99.90;;;15.75;100.00;100911.75;6151148;23;20221;-77
2022/05/27 07:21:29;;;;;;;;;;;18.40;99.90;;;15.76;100.00;100918.91;6152066;23;19916;-73
2022/05/27 07:23:57;;;;;;;;;;;18.30;99.90;;;15.77;100.00;100920.59;6151858;23;19998;-76
2022/05/27 07:26:27;;;;;;;;;;;18.30;99.90;;;15.76;100.00;100925.25;6150549;23;19955;-75
2022/05/27 07:28:55;;;;;;;;;;;18.20;99.90;;;15.77;100.00;100926.09;6150833;23;20412;-75
2022/05/27 07:31:22;;;;;;;;;;;18.20;99.90;;;15.78;100.00;100927.75;6151771;23;20003;-76
2022/05/27 07:33:49;;;;;;;;;;;18.20;99.90;;;15.80;100.00;100931.16;6151760;23;20375;-76
2022/05/27 07:36:17;;;;;;;;;;;18.20;99.90;;;15.82;100.00;100931.78;6152123;23;19935;-75
2022/05/27 07:38:44;;;;;;;;;;;18.20;99.90;;;15.84;100.00;100935.19;6150635;23;19924;-81
2022/05/27 07:41:12;;;;;;;;;;;18.30;99.90;;;15.89;100.00;100940.03;6125430;23;20259;-74
2022/05/27 07:43:39;;;;;;;;;;;18.30;99.90;;;15.86;100.00;100924.84;6151224;23;19916;-76
2022/05/27 07:46:07;;;;;;;;;;;18.30;99.90;;;15.88;100.00;100930.97;6151136;23;19986;-76
2022/05/27 07:48:34;;;;;;;;;;;18.30;99.90;;;15.84;100.00;100924.22;6149893;23;20386;-76
2022/05/27 07:51:01;;;;;;;;;;;18.20;99.90;;;15.86;100.00;100933.06;6151648;23;20279;-76
2022/05/27 07:53:28;;;;;;;;;;;18.10;99.90;;;15.88;100.00;100922.72;6151633;23;19971;-76
2022/05/27 07:55:55;;;;;;;;;;;18.30;99.90;;;15.95;100.00;100925.47;6151777;23;19975;-76
2022/05/27 07:58:22;;;;;;;;;;;18.40;99.90;;;16.00;100.00;100921.03;6150734;23;19921;-77
2022/05/27 08:00:49;;;;;;;;;;;18.50;99.90;;;16.06;100.00;100924.00;6151420;23;19999;-76
2022/05/27 08:03:19;;;;;;;;;;;18.70;99.90;;;16.11;100.00;100916.00;6149843;23;19927;-76
2022/05/27 08:05:46;;;;;;;;;;;18.70;99.90;;;16.16;100.00;100913.44;6150116;23;19975;-76
2022/05/27 08:08:13;;;;;;;;;;;18.80;99.90;;;16.23;100.00;100919.78;6150059;23;19921;-76
2022/05/27 08:10:41;;;;;;;;;;;18.90;99.90;;;16.26;100.00;100922.09;6152372;23;19921;-75
2022/05/27 08:13:08;;;;;;;;;;;19.00;99.90;;;16.35;100.00;100919.97;6151552;23;19921;-76
2022/05/27 08:15:36;;;;;;;;;;;19.10;99.90;;;16.41;100.00;100922.72;6153078;23;19916;-76
2022/05/27 08:18:03;;;;;;;;;;;19.20;99.90;;;16.49;100.00;100915.31;6152726;23;19995;-76
2022/05/27 08:20:34;;;;;;;;;;;19.40;99.90;;;16.53;100.00;100919.31;6152875;23;19920;-77
2022/05/27 08:23:01;;;;;;;;;;;19.40;99.90;;;16.57;100.00;100923.34;6152674;23;19947;-76
2022/05/27 08:25:30;;;;;;;;;;;19.30;99.90;;;16.56;100.00;100924.38;6152793;23;19952;-77
2022/05/27 08:27:57;;;;;;;;;;;19.20;99.90;;;16.54;100.00;100924.59;6125755;23;19920;-76
2022/05/27 08:30:26;;;;;;;;;;;19.10;99.90;;;16.59;100.00;100932.19;6153199;23;19927;-76
2022/05/27 08:32:53;;;;;;;;;;;19.20;99.90;;;16.60;100.00;100925.63;6153581;23;19921;-77
2022/05/27 08:38:10;;;;;;;;;;;19.20;99.90;;;16.63;100.00;100925.22;6151959;23;19916;-77
2022/05/27 08:41:01;;;;;;;;;;;19.20;99.90;;;16.67;100.00;100928.38;6153378;23;19921;-77
2022/05/27 08:43:34;;;;;;;;;;;19.20;99.90;;;16.74;100.00;100926.47;6153416;23;19921;-77
2022/05/27 08:46:09;;;;;;;;;;;19.30;99.90;;;16.78;100.00;100917.56;6153600;23;19943;-77
2022/05/27 08:48:39;;;;;;;;;;;19.50;99.90;;;16.86;100.00;100923.91;6152251;23;19924;-77
2022/05/27 08:51:14;;;;;;;;;;;19.60;99.90;;;16.91;100.00;100921.38;6151771;23;19924;-75
2022/05/27 08:53:45;;;;;;;;;;;19.70;99.90;;;16.96;100.00;100918.81;6152804;23;19971;-74
2022/05/27 09:01:34;;;;;;;;;;;19.80;99.90;;;17.08;100.00;100922.56;6093602;23;19921;-85
2022/05/27 09:04:07;;;;;;;;;;;19.90;99.90;;;17.13;100.00;100933.75;6093595;23;19945;-85
2022/05/27 09:06:39;;;;;;;;;;;19.90;99.90;;;17.13;100.00;100936.50;6093808;23;19917;-85
2022/05/27 09:09:13;;;;;;;;;;;19.80;99.90;;;17.11;100.00;100943.28;6093511;23;19949;-85
2022/05/27 09:11:47;;;;;;;;;;;19.70;99.90;;;17.10;100.00;100934.19;6094443;23;20074;-88
2022/05/27 09:14:16;;;;;;;;;;;19.60;99.90;;;17.11;100.00;100930.38;6068250;23;20340;-90
2022/05/27 09:16:51;;;;;;;;;;;19.60;99.90;;;17.13;100.00;100939.25;6092059;23;19921;-89
2022/05/27 09:19:24;;;;;;;;;;;19.60;99.90;;;17.15;100.00;100933.53;6091999;23;19921;-92
2022/05/27 09:21:58;;;;;;;;;;;19.60;99.90;;;17.13;98.07;100931.00;6068221;23;20027;-86
2022/05/27 09:24:42;;;;;;;;;;;19.60;99.90;;;17.13;97.72;100938.41;6094552;23;20000;-89
2022/05/27 09:27:12;;;;;;;;;;;19.60;99.90;;;17.15;99.24;100933.53;6094364;23;19918;-87
2022/05/27 09:29:59;;;;;;;;;;;19.60;99.90;;;17.15;97.77;100937.16;6093274;23;19925;-86
2022/05/27 09:32:31;;;;;;;;;;;19.60;99.90;;;17.17;95.99;100942.41;6093603;23;20129;-92
2022/05/27 09:35:02;;;;;;;;;;;19.60;99.90;;;17.17;96.40;100951.53;6094803;23;19959;-91
2022/05/27 09:37:34;;;;;;;;;;;19.60;99.90;;;17.16;93.97;100952.56;6094451;23;20049;-85
2022/05/27 09:40:08;;;;;;;;;;;19.60;99.90;;;17.19;94.76;100943.91;6094043;23;20003;-87
2022/05/27 09:42:39;;;;;;;;;;;19.60;99.90;;;17.20;94.31;100958.50;6093785;23;19967;-82
2022/05/27 09:45:07;;;;;;;;;;;19.70;99.90;;;17.16;87.72;100955.31;6103225;23;19929;-89
2022/05/27 09:47:36;;;;;;;;;;;19.70;99.00;;;17.18;88.74;100946.88;6113002;23;19921;-92
2022/05/27 09:50:08;;;;;;;;;;;19.60;97.10;;;17.20;92.03;100951.06;6112113;23;19940;-91
2022/05/27 09:52:37;;;;;;;;;;;19.70;99.90;;;17.22;92.55;100945.38;6110079;23;19921;-90
2022/05/27 09:55:20;;;;;;;;;;;19.70;99.90;;;17.20;91.98;100942.81;6106280;23;19921;-91
2022/05/27 09:57:56;;;;;;;;;;;19.70;99.70;;;17.28;89.80;100951.91;6072141;23;19925;-92
2022/05/27 10:00:36;;;;;;;;;;;19.80;97.70;;;17.26;92.26;100946.59;6095053;23;19948;-91
2022/05/27 10:03:29;;;;;;;;;;;19.80;99.70;;;17.30;90.39;100949.78;6092907;23;19921;-92
2022/05/27 10:06:00;;;;;;;;;;;19.90;99.10;;;17.34;89.75;100962.03;6066941;23;20024;-91
2022/05/27 10:08:33;;;;;;;;;;;19.90;98.80;;;17.36;87.65;100959.91;6093245;23;19953;-90
2022/05/27 10:11:15;;;;;;;;;;;19.90;96.80;;;17.39;89.46;100962.22;6094496;23;19917;-90
2022/05/27 10:13:43;;;;;;;;;;;20.00;98.50;;;17.41;87.78;100962.00;6094272;23;19996;-84
2022/05/27 10:16:12;;;;;;;;;;;20.00;97.50;;;17.43;87.72;100966.22;6094078;23;19921;-93
2022/05/27 10:18:40;;;;;;;;;;;20.00;97.60;;;17.41;84.93;100959.25;6067746;23;19952;-92
2022/05/27 10:21:13;;;;;;;;;;;20.00;94.80;;;17.45;85.89;100947.56;6094206;23;19925;-94
2022/05/27 10:23:42;;;;;;;;;;;20.00;97.30;;;17.47;83.78;100950.94;6068210;23;19927;-78
2022/05/27 10:26:23;;;;;;;;;;;20.00;95.00;;;17.49;85.91;100956.25;6093402;23;20003;-89
2022/05/27 10:29:02;;;;;;;;;;;20.00;96.80;;;17.53;88.31;100963.81;6093676;23;19921;-89
2022/05/27 10:31:29;;;;;;;;;;;20.00;97.60;;;17.53;84.06;100952.81;6094343;23;19921;-89
2022/05/27 10:33:57;;;;;;;;;;;20.00;93.50;;;17.56;85.69;100946.03;6066359;23;20508;-79
2022/05/27 10:36:33;;;;;;;;;;;20.00;96.40;;;17.53;81.89;100969.34;6090853;23;19949;-81
2022/05/27 10:39:02;;;;;;;;;;;20.00;93.80;;;17.56;84.00;100962.56;6089994;23;19952;-84
2022/05/27 10:41:41;;;;;;;;;;;20.00;95.60;;;17.56;80.67;100957.06;6094200;23;19924;-85
2022/05/27 10:44:47;;;;;;;;;;;20.00;93.50;;;17.53;80.30;100955.56;6093903;23;20352;-84
2022/05/27 10:47:21;;;;;;;;;;;19.90;93.90;;;17.56;82.56;100951.56;6094127;23;20388;-83
2022/05/27 10:50:01;;;;;;;;;;;19.90;94.80;;;17.50;76.11;100960.69;6093066;23;19927;-84
2022/05/27 10:52:42;;;;;;;;;;;19.80;93.10;;;17.49;78.63;100951.56;6093283;23;19959;-83
2022/05/27 10:55:18;;;;;;;;;;;19.80;93.40;;;17.50;79.72;100950.53;6093568;23;20399;-83
2022/05/27 11:04:07;;;;;;;;;;;19.80;91.20;;;17.44;74.81;100947.78;6092589;23;19964;-85
2022/05/27 11:06:59;;;;;;;;;;;19.80;91.50;;;17.47;76.61;100947.38;6092851;23;19980;-80
2022/05/27 11:09:34;;;;;;;;;;;19.70;93.30;;;17.47;76.72;100944.63;6092593;23;19968;-79
2022/05/27 11:12:05;;;;;;;;;;;19.70;92.70;;;17.49;78.17;100935.06;6093249;23;20003;-78
2022/05/27 11:17:36;;;;;;;;;;;19.80;93.20;;;17.53;75.16;100932.72;6093516;23;19925;-78
2022/05/27 11:20:18;;;;;;;;;;;19.90;89.70;;;17.58;78.00;100938.41;6067234;23;19921;-78
2022/05/27 11:22:53;;;;;;;;;;;20.00;92.00;;;17.59;77.08;100934.56;6093523;23;19920;-78
2022/05/27 11:25:28;;;;;;;;;;;20.00;92.00;;;17.62;76.48;100941.56;6092501;23;19924;-77
2022/05/27 11:28:15;;;;;;;;;;;20.00;91.60;;;17.64;77.71;100940.28;6092266;23;19945;-77
2022/05/27 11:30:51;;;;;;;;;;;20.10;92.10;;;17.66;76.15;100951.91;6074926;23;20356;-78
2022/05/27 11:33:31;;;;;;;;;;;20.10;91.50;;;17.66;74.18;100962.09;6092741;23;20353;-79
2022/05/27 11:36:10;;;;;;;;;;;20.00;90.80;;;17.64;72.68;100953.19;6066956;23;20023;-78
2022/05/27 11:39:13;;;;;;;;;;;20.00;89.20;;;17.65;74.29;100955.75;6092201;23;20004;-79
2022/05/27 11:41:47;;;;;;;;;;;20.00;89.50;;;17.67;74.26;100937.09;6090252;23;19921;-79
2022/05/27 11:44:23;;;;;;;;;;;20.00;89.70;;;17.67;73.34;100948.09;6092498;23;20344;-79
2022/05/27 11:47:24;;;;;;;;;;;20.10;90.00;;;17.70;72.96;100941.31;6093307;23;20305;-78
2022/05/27 11:50:04;;;;;;;;;;;20.10;89.50;;;17.71;72.97;100948.50;6092450;23;19924;-78
2022/05/27 11:52:50;;;;;;;;;;;20.00;88.90;;;17.73;73.45;100943.63;6093521;23;19917;-78
2022/05/27 11:55:34;;;;;;;;;;;20.10;88.80;;;17.73;72.83;100940.88;6092824;23;20029;-77